createdAt,value
2018-03-31T00:00:45.900Z,73.70
2018-03-31T00:01:46.879Z,73.30
2018-03-31T00:02:47.859Z,72.90
2018-03-31T00:03:48.924Z,72.50
2018-03-31T00:04:49.896Z,72.90
2018-03-31T00:05:50.860Z,72.90
2018-03-31T00:06:51.825Z,72.20
2018-03-31T00:07:52.755Z,71.20
2018-03-31T00:08:54.524Z,69.50
2018-03-31T00:09:55.713Z,69.50
2018-03-31T00:10:57.060Z,69.60
2018-03-31T00:11:58.127Z,69.60
2018-03-31T00:12:59.101Z,69.30
2018-03-31T00:14:00.138Z,69.50
2018-03-31T00:15:01.164Z,69.80
2018-03-31T00:16:02.142Z,69.10
2018-03-31T00:17:03.137Z,69.00
2018-03-31T00:18:04.109Z,70.50
2018-03-31T00:19:05.184Z,71.70
2018-03-31T00:20:06.150Z,71.70
2018-03-31T00:21:07.201Z,70.40
2018-03-31T00:22:09.016Z,70.60
2018-03-31T00:23:10.746Z,71.60
2018-03-31T00:24:11.704Z,71.60
2018-03-31T00:25:12.676Z,72.20
2018-03-31T00:26:13.636Z,71.40
2018-03-31T00:27:14.620Z,71.20
2018-03-31T00:28:15.585Z,70.90
2018-03-31T00:29:16.548Z,70.00
2018-03-31T00:30:17.514Z,71.10
2018-03-31T00:31:18.479Z,72.00
2018-03-31T00:32:19.483Z,72.90
2018-03-31T00:33:20.457Z,72.90
2018-03-31T00:34:21.396Z,70.60
2018-03-31T00:35:23.324Z,67.20
2018-03-31T00:36:24.515Z,67.00
2018-03-31T00:37:25.477Z,67.80
2018-03-31T00:38:26.464Z,71.00
2018-03-31T00:39:27.428Z,71.60
2018-03-31T00:40:28.394Z,69.10
2018-03-31T00:41:29.364Z,68.40
2018-03-31T00:42:30.336Z,68.30
2018-03-31T00:43:31.324Z,68.00
2018-03-31T00:44:32.500Z,67.10
2018-03-31T00:45:33.468Z,67.00
2018-03-31T00:46:34.960Z,67.10
2018-03-31T00:47:37.652Z,67.70
2018-03-31T00:48:38.623Z,67.70
2018-03-31T00:49:40.204Z,67.60
2018-03-31T00:50:41.185Z,67.70
2018-03-31T00:51:42.160Z,67.60
2018-03-31T00:52:43.121Z,67.00
2018-03-31T00:53:44.839Z,67.60
2018-03-31T00:54:45.810Z,67.50
2018-03-31T00:55:47.496Z,67.60
2018-03-31T00:56:48.460Z,67.50
2018-03-31T00:57:49.424Z,67.90
2018-03-31T00:58:50.407Z,68.50
2018-03-31T00:59:51.328Z,67.60
2018-03-31T01:00:52.308Z,67.90
2018-03-31T01:01:53.272Z,67.50
2018-03-31T01:02:54.215Z,67.00
2018-03-31T01:03:55.192Z,67.30
2018-03-31T01:04:56.905Z,67.80
2018-03-31T01:05:57.868Z,67.80
2018-03-31T01:06:59.548Z,68.00
2018-03-31T01:08:00.502Z,68.00
2018-03-31T01:09:01.479Z,68.10
2018-03-31T01:10:02.440Z,68.50
2018-03-31T01:11:03.415Z,69.10
2018-03-31T01:12:05.120Z,68.50
2018-03-31T01:13:06.086Z,68.90
2018-03-31T01:14:07.044Z,69.10
2018-03-31T01:15:08.020Z,69.10
2018-03-31T01:16:14.345Z,69.00
2018-03-31T01:17:15.433Z,68.80
2018-03-31T01:18:17.181Z,69.10
2018-03-31T01:19:18.163Z,69.20
2018-03-31T01:20:19.124Z,69.80
2018-03-31T01:21:20.095Z,68.70
2018-03-31T01:22:21.792Z,68.70
2018-03-31T01:23:22.744Z,68.70
2018-03-31T01:24:23.700Z,68.80
2018-03-31T01:25:25.387Z,68.30
2018-03-31T01:26:26.356Z,68.30
2018-03-31T01:27:27.316Z,68.50
2018-03-31T01:28:28.284Z,68.70
2018-03-31T01:29:29.263Z,68.50
2018-03-31T01:30:30.216Z,68.20
2018-03-31T01:31:31.168Z,68.00
2018-03-31T01:32:32.140Z,68.30
2018-03-31T01:33:33.860Z,68.80
2018-03-31T01:34:34.825Z,68.70
2018-03-31T01:35:35.796Z,68.40
2018-03-31T01:36:36.768Z,68.70
2018-03-31T01:37:37.724Z,68.70
2018-03-31T01:38:38.703Z,68.80
2018-03-31T01:39:39.673Z,69.10
2018-03-31T01:40:40.624Z,69.20
2018-03-31T01:41:41.580Z,68.90
2018-03-31T01:42:42.544Z,68.90
2018-03-31T01:43:43.530Z,68.80
2018-03-31T01:44:44.504Z,68.60
2018-03-31T01:45:45.462Z,68.40
2018-03-31T01:46:46.424Z,68.50
2018-03-31T01:47:47.385Z,69.10
2018-03-31T01:48:48.348Z,69.20
2018-03-31T01:49:49.323Z,69.00
2018-03-31T01:50:50.277Z,69.10
2018-03-31T01:51:51.283Z,69.10
2018-03-31T01:52:52.256Z,69.10
2018-03-31T01:53:53.227Z,69.20
2018-03-31T01:54:54.217Z,69.00
2018-03-31T01:55:55.188Z,69.00
2018-03-31T01:56:56.147Z,68.80
2018-03-31T01:57:57.116Z,68.70
2018-03-31T01:58:58.068Z,69.30
2018-03-31T01:59:59.032Z,69.20
2018-03-31T02:00:59.992Z,69.20
2018-03-31T02:02:00.955Z,69.10
2018-03-31T02:03:01.904Z,69.20
2018-03-31T02:04:02.856Z,69.40
2018-03-31T02:05:03.827Z,69.30
2018-03-31T02:06:04.784Z,69.20
2018-03-31T02:07:05.749Z,69.00
2018-03-31T02:08:06.707Z,68.90
2018-03-31T02:09:07.676Z,68.70
2018-03-31T02:10:08.657Z,68.90
2018-03-31T02:11:09.620Z,68.80
2018-03-31T02:12:10.581Z,68.80
2018-03-31T02:13:11.539Z,68.70
2018-03-31T02:14:12.503Z,68.90
2018-03-31T02:15:13.459Z,69.10
2018-03-31T02:16:14.424Z,68.80
2018-03-31T02:17:16.167Z,68.70
2018-03-31T02:18:17.091Z,68.60
2018-03-31T02:19:18.041Z,68.30
2018-03-31T02:20:19.009Z,68.20
2018-03-31T02:21:19.966Z,68.60
2018-03-31T02:22:20.936Z,68.50
2018-03-31T02:23:21.893Z,69.40
2018-03-31T02:24:22.884Z,68.30
2018-03-31T02:25:24.598Z,68.50
2018-03-31T02:26:25.586Z,68.40
2018-03-31T02:27:26.538Z,68.70
2018-03-31T02:28:27.498Z,68.70
2018-03-31T02:29:28.468Z,69.00
2018-03-31T02:30:29.429Z,69.40
2018-03-31T02:31:30.413Z,69.10
2018-03-31T02:32:31.390Z,69.20
2018-03-31T02:33:32.374Z,69.20
2018-03-31T02:34:33.340Z,69.20
2018-03-31T02:35:34.332Z,69.50
2018-03-31T02:36:35.288Z,69.40
2018-03-31T02:37:36.244Z,69.10
2018-03-31T02:38:37.258Z,69.30
2018-03-31T02:39:38.232Z,69.10
2018-03-31T02:40:39.213Z,69.10
2018-03-31T02:41:40.166Z,69.50
2018-03-31T02:42:41.137Z,69.50
2018-03-31T02:43:42.825Z,69.50
2018-03-31T02:44:43.797Z,69.50
2018-03-31T02:45:44.760Z,69.40
2018-03-31T02:46:45.736Z,69.50
2018-03-31T02:47:46.718Z,69.40
2018-03-31T02:48:47.671Z,69.30
2018-03-31T02:49:48.623Z,69.30
2018-03-31T02:50:49.596Z,69.10
2018-03-31T02:51:50.544Z,69.50
2018-03-31T02:52:51.516Z,69.30
2018-03-31T02:53:52.492Z,69.60
2018-03-31T02:54:53.444Z,69.50
2018-03-31T02:55:54.403Z,69.70
2018-03-31T02:56:55.384Z,69.50
2018-03-31T02:57:56.373Z,69.60
2018-03-31T02:58:57.329Z,70.10
2018-03-31T02:59:59.039Z,70.80
2018-03-31T03:01:00.017Z,70.80
2018-03-31T03:02:00.940Z,71.20
2018-03-31T03:03:01.870Z,71.10
2018-03-31T03:04:02.794Z,71.20
2018-03-31T03:05:03.728Z,71.00
2018-03-31T03:06:04.717Z,71.20
2018-03-31T03:07:05.699Z,71.30
2018-03-31T03:08:06.680Z,71.20
2018-03-31T03:09:07.646Z,70.20
2018-03-31T03:10:08.597Z,70.00
2018-03-31T03:11:09.569Z,69.70
2018-03-31T03:12:10.550Z,69.70
2018-03-31T03:13:11.563Z,69.70
2018-03-31T03:14:12.447Z,69.70
2018-03-31T03:15:13.344Z,69.60
2018-03-31T03:16:14.248Z,69.60
2018-03-31T03:17:15.131Z,69.50
2018-03-31T03:18:16.765Z,69.30
2018-03-31T03:19:17.651Z,69.30
2018-03-31T03:20:18.573Z,69.20
2018-03-31T03:21:19.468Z,69.30
2018-03-31T03:22:20.364Z,69.40
2018-03-31T03:23:21.261Z,69.30
2018-03-31T03:24:22.160Z,69.20
2018-03-31T03:25:23.060Z,69.10
2018-03-31T03:26:23.952Z,68.90
2018-03-31T03:27:24.860Z,68.80
2018-03-31T03:28:25.748Z,68.70
2018-03-31T03:29:27.387Z,69.90
2018-03-31T03:30:28.272Z,68.70
2018-03-31T03:31:29.211Z,68.70
2018-03-31T03:32:30.109Z,68.70
2018-03-31T03:33:31.027Z,68.60
2018-03-31T03:34:32.651Z,68.90
2018-03-31T03:35:33.564Z,68.80
2018-03-31T03:36:34.469Z,69.00
2018-03-31T03:37:35.356Z,68.90
2018-03-31T03:38:36.994Z,68.70
2018-03-31T03:39:37.900Z,68.70
2018-03-31T03:40:38.813Z,68.80
2018-03-31T03:41:39.716Z,68.40
2018-03-31T03:42:40.612Z,68.50
2018-03-31T03:43:41.509Z,68.40
2018-03-31T03:44:42.401Z,68.80
2018-03-31T03:45:43.308Z,68.70
2018-03-31T03:46:44.236Z,68.60
2018-03-31T03:47:45.134Z,68.70
2018-03-31T03:48:46.802Z,68.70
2018-03-31T03:49:47.692Z,68.70
2018-03-31T03:50:48.583Z,68.80
2018-03-31T03:51:49.492Z,68.50
2018-03-31T03:52:50.387Z,68.30
2018-03-31T03:53:51.279Z,68.40
2018-03-31T03:54:52.182Z,68.60
2018-03-31T03:55:53.083Z,68.90
2018-03-31T03:56:53.981Z,69.10
2018-03-31T03:57:54.857Z,69.10
2018-03-31T03:58:55.744Z,69.00
2018-03-31T03:59:56.652Z,69.00
2018-03-31T04:00:57.546Z,69.00
2018-03-31T04:01:58.475Z,68.90
2018-03-31T04:03:00.140Z,68.80
2018-03-31T04:04:01.035Z,68.80
2018-03-31T04:05:02.812Z,68.80
2018-03-31T04:06:03.724Z,69.60
2018-03-31T04:07:04.640Z,68.70
2018-03-31T04:08:05.555Z,68.80
2018-03-31T04:09:06.439Z,69.10
2018-03-31T04:10:07.336Z,69.30
2018-03-31T04:11:08.238Z,69.50
2018-03-31T04:12:09.896Z,69.10
2018-03-31T04:13:11.559Z,68.90
2018-03-31T04:14:12.464Z,69.00
2018-03-31T04:15:14.103Z,69.00
2018-03-31T04:16:15.012Z,69.00
2018-03-31T04:17:15.917Z,68.80
2018-03-31T04:18:16.842Z,69.50
2018-03-31T04:19:17.708Z,68.50
2018-03-31T04:20:18.604Z,68.70
2018-03-31T04:21:19.506Z,68.20
2018-03-31T04:22:20.405Z,67.70
2018-03-31T04:23:22.036Z,68.60
2018-03-31T04:24:22.928Z,68.60
2018-03-31T04:25:23.804Z,67.50
2018-03-31T04:26:24.696Z,67.20
2018-03-31T04:27:25.602Z,67.10
2018-03-31T04:28:27.225Z,67.10
2018-03-31T04:29:28.118Z,67.10
2018-03-31T04:30:29.024Z,67.50
2018-03-31T04:31:29.916Z,67.30
2018-03-31T04:32:30.832Z,67.30
2018-03-31T04:33:31.719Z,67.20
2018-03-31T04:34:32.600Z,67.10
2018-03-31T04:35:33.492Z,67.40
2018-03-31T04:36:35.129Z,69.00
2018-03-31T04:37:36.026Z,68.90
2018-03-31T04:38:36.915Z,69.00
2018-03-31T04:39:37.805Z,69.60
2018-03-31T04:40:38.696Z,69.40
2018-03-31T04:41:39.607Z,68.20
2018-03-31T04:42:40.508Z,67.90
2018-03-31T04:43:42.131Z,67.30
2018-03-31T04:44:43.018Z,67.20
2018-03-31T04:45:43.908Z,67.70
2018-03-31T04:46:45.554Z,67.70
2018-03-31T04:47:47.183Z,67.70
2018-03-31T04:48:48.073Z,67.70
2018-03-31T04:49:48.972Z,67.00
2018-03-31T04:50:49.875Z,67.20
2018-03-31T04:51:50.788Z,67.10
2018-03-31T04:52:51.712Z,67.00
2018-03-31T04:53:52.640Z,67.10
2018-03-31T04:54:53.567Z,67.70
2018-03-31T04:55:54.457Z,67.80
2018-03-31T04:56:55.341Z,67.90
2018-03-31T04:57:56.227Z,68.00
2018-03-31T04:58:57.127Z,68.00
2018-03-31T04:59:58.015Z,68.10
2018-03-31T05:00:58.903Z,68.10
2018-03-31T05:01:59.824Z,68.10
2018-03-31T05:03:02.043Z,68.40
2018-03-31T05:04:03.877Z,68.40
2018-03-31T05:05:04.788Z,68.30
2018-03-31T05:06:05.716Z,68.20
2018-03-31T05:07:07.148Z,68.50
2018-03-31T05:08:08.144Z,68.80
2018-03-31T05:09:09.068Z,68.70
2018-03-31T05:10:10.791Z,68.80
2018-03-31T05:11:11.680Z,68.80
2018-03-31T05:12:12.580Z,67.90
2018-03-31T05:13:13.488Z,68.50
2018-03-31T05:14:15.132Z,68.20
2018-03-31T05:15:16.784Z,68.40
2018-03-31T05:16:18.429Z,68.40
2018-03-31T05:17:20.069Z,68.50
2018-03-31T05:18:20.980Z,68.50
2018-03-31T05:19:21.872Z,68.00
2018-03-31T05:20:22.765Z,68.90
2018-03-31T05:21:23.661Z,68.10
2018-03-31T05:22:24.580Z,68.50
2018-03-31T05:23:25.508Z,68.50
2018-03-31T05:24:26.418Z,68.10
2018-03-31T05:25:27.316Z,67.70
2018-03-31T05:26:28.258Z,67.40
2018-03-31T05:27:29.160Z,67.80
2018-03-31T05:28:30.810Z,68.80
2018-03-31T05:29:32.444Z,69.00
2018-03-31T05:30:34.099Z,68.40
2018-03-31T05:31:35.010Z,68.40
2018-03-31T05:32:36.644Z,68.50
2018-03-31T05:33:37.564Z,68.10
2018-03-31T05:34:38.452Z,68.20
2018-03-31T05:35:39.361Z,68.40
2018-03-31T05:36:40.260Z,68.40
2018-03-31T05:37:41.196Z,68.10
2018-03-31T05:38:42.155Z,67.50
2018-03-31T05:39:42.994Z,68.40
2018-03-31T05:40:44.624Z,68.10
2018-03-31T05:41:45.516Z,68.10
2018-03-31T05:42:46.434Z,68.20
2018-03-31T05:43:47.371Z,68.10
2018-03-31T05:44:48.288Z,68.50
2018-03-31T05:45:49.172Z,68.60
2018-03-31T05:46:50.091Z,68.50
2018-03-31T05:47:50.978Z,68.30
2018-03-31T05:48:51.870Z,68.30
2018-03-31T05:49:52.768Z,67.60
2018-03-31T05:50:53.655Z,67.90
2018-03-31T05:51:54.560Z,67.80
2018-03-31T05:52:55.451Z,67.90
2018-03-31T05:53:56.340Z,67.60
2018-03-31T05:54:57.215Z,67.60
2018-03-31T05:55:58.109Z,67.40
2018-03-31T05:56:59.051Z,67.30
2018-03-31T05:58:00.695Z,66.60
2018-03-31T05:59:02.336Z,66.40
2018-03-31T06:00:03.253Z,66.30
2018-03-31T06:01:04.159Z,66.00
2018-03-31T06:02:05.056Z,65.80
2018-03-31T06:03:05.935Z,65.80
2018-03-31T06:04:06.848Z,65.60
2018-03-31T06:06:02.891Z,65.70
2018-03-31T06:07:03.790Z,66.80
2018-03-31T06:08:04.693Z,66.10
2018-03-31T06:09:05.582Z,66.20
2018-03-31T06:10:06.500Z,66.00
2018-03-31T06:11:07.405Z,66.00
2018-03-31T06:12:08.293Z,66.00
2018-03-31T06:13:09.211Z,66.10
2018-03-31T06:14:10.873Z,65.40
2018-03-31T06:15:11.758Z,65.40
2018-03-31T06:16:12.655Z,65.40
2018-03-31T06:17:13.544Z,65.10
2018-03-31T06:18:14.453Z,65.30
2018-03-31T06:19:16.104Z,65.80
2018-03-31T06:20:17.756Z,65.50
2018-03-31T06:21:18.672Z,65.50
2018-03-31T06:22:19.565Z,65.50
2018-03-31T06:23:20.466Z,65.50
2018-03-31T06:24:21.378Z,65.90
2018-03-31T06:25:22.260Z,66.00
2018-03-31T06:26:23.135Z,66.00
2018-03-31T06:27:24.024Z,66.20
2018-03-31T06:28:24.925Z,66.20
2018-03-31T06:29:25.819Z,66.10
2018-03-31T06:30:26.704Z,66.20
2018-03-31T06:31:27.598Z,66.10
2018-03-31T06:32:29.238Z,66.00
2018-03-31T06:33:30.151Z,66.10
2018-03-31T06:34:31.043Z,66.10
2018-03-31T06:35:32.684Z,65.60
2018-03-31T06:36:33.571Z,65.50
2018-03-31T06:37:35.212Z,65.90
2018-03-31T06:38:36.129Z,65.90
2018-03-31T06:39:37.044Z,66.10
2018-03-31T06:40:37.932Z,66.10
2018-03-31T06:41:38.832Z,66.20
2018-03-31T06:42:39.758Z,66.20
2018-03-31T06:43:40.692Z,66.30
2018-03-31T06:44:41.593Z,66.40
2018-03-31T06:45:42.498Z,66.60
2018-03-31T06:46:44.146Z,66.60
2018-03-31T06:47:45.017Z,66.60
2018-03-31T06:48:45.886Z,66.40
2018-03-31T06:49:46.808Z,66.30
2018-03-31T06:50:47.697Z,66.60
2018-03-31T06:51:48.578Z,66.30
2018-03-31T06:52:49.515Z,66.20
2018-03-31T06:53:50.378Z,65.80
2018-03-31T06:54:51.280Z,66.20
2018-03-31T06:55:52.170Z,65.90
2018-03-31T06:56:53.062Z,66.10
2018-03-31T06:57:53.961Z,66.20
2018-03-31T06:58:54.856Z,66.20
2018-03-31T06:59:55.752Z,66.50
2018-03-31T07:00:56.658Z,66.40
2018-03-31T07:01:57.539Z,66.50
2018-03-31T07:02:58.428Z,66.80
2018-03-31T07:03:59.327Z,66.70
2018-03-31T07:05:00.967Z,67.00
2018-03-31T07:06:01.895Z,67.00
2018-03-31T07:07:03.550Z,66.90
2018-03-31T07:08:04.429Z,66.80
2018-03-31T07:09:06.108Z,66.90
2018-03-31T07:10:07.755Z,67.00
2018-03-31T07:11:09.384Z,66.20
2018-03-31T07:12:10.265Z,66.20
2018-03-31T07:13:11.161Z,66.20
2018-03-31T07:14:12.058Z,66.10
2018-03-31T07:15:12.953Z,66.20
2018-03-31T07:16:13.843Z,66.10
2018-03-31T07:17:15.475Z,65.90
2018-03-31T07:18:16.362Z,65.90
2018-03-31T07:19:17.252Z,66.00
2018-03-31T07:20:18.889Z,65.90
2018-03-31T07:21:19.772Z,65.90
2018-03-31T07:22:20.672Z,65.60
2018-03-31T07:23:21.552Z,65.80
2018-03-31T07:24:22.432Z,65.70
2018-03-31T07:25:23.328Z,66.00
2018-03-31T07:26:24.220Z,65.90
2018-03-31T07:27:25.114Z,65.80
2018-03-31T07:28:26.008Z,66.00
2018-03-31T07:29:26.883Z,65.80
2018-03-31T07:30:27.772Z,66.20
2018-03-31T07:31:28.675Z,66.20
2018-03-31T07:32:29.559Z,65.80
2018-03-31T07:33:30.461Z,65.60
2018-03-31T07:34:31.353Z,65.40
2018-03-31T07:35:32.240Z,65.60
2018-03-31T07:36:33.133Z,65.90
2018-03-31T07:37:34.778Z,65.60
2018-03-31T07:38:35.667Z,65.40
2018-03-31T07:39:36.561Z,65.10
2018-03-31T07:40:37.462Z,65.00
2018-03-31T07:41:38.356Z,65.40
2018-03-31T07:42:39.236Z,65.40
2018-03-31T07:43:40.260Z,65.90
2018-03-31T07:44:41.258Z,65.60
2018-03-31T07:45:42.151Z,65.10
2018-03-31T07:46:43.044Z,64.90
2018-03-31T07:47:43.920Z,64.90
2018-03-31T07:48:44.808Z,64.20
2018-03-31T07:49:45.696Z,64.40
2018-03-31T07:50:46.616Z,64.60
2018-03-31T07:51:47.500Z,64.80
2018-03-31T07:52:48.443Z,64.70
2018-03-31T07:53:50.089Z,64.80
2018-03-31T07:54:50.980Z,64.60
2018-03-31T07:55:52.632Z,64.90
2018-03-31T07:56:53.507Z,64.90
2018-03-31T07:57:54.394Z,64.50
2018-03-31T07:58:55.298Z,64.10
2018-03-31T07:59:56.920Z,64.10
2018-03-31T08:00:57.857Z,64.10
2018-03-31T08:01:58.720Z,63.70
2018-03-31T08:02:59.620Z,63.30
2018-03-31T08:04:01.244Z,63.30
2018-03-31T08:05:02.149Z,63.30
2018-03-31T08:06:03.045Z,63.40
2018-03-31T08:07:03.935Z,63.40
2018-03-31T08:08:04.838Z,62.90
2018-03-31T08:09:05.740Z,63.00
2018-03-31T08:10:06.644Z,63.00
2018-03-31T08:11:07.580Z,62.70
2018-03-31T08:12:08.851Z,62.80
2018-03-31T08:13:09.745Z,62.50
2018-03-31T08:14:10.628Z,62.20
2018-03-31T08:15:11.518Z,62.00
2018-03-31T08:16:12.428Z,62.10
2018-03-31T08:17:14.065Z,61.90
2018-03-31T08:18:15.706Z,61.60
2018-03-31T08:19:17.342Z,61.30
2018-03-31T08:20:18.220Z,61.30
2018-03-31T08:21:19.141Z,61.70
2018-03-31T08:22:20.501Z,60.90
2018-03-31T08:23:21.527Z,60.80
2018-03-31T08:24:22.418Z,61.00
2018-03-31T08:25:23.356Z,60.60
2018-03-31T08:26:24.304Z,61.00
2018-03-31T08:27:25.233Z,61.50
2018-03-31T08:28:26.144Z,60.70
2018-03-31T08:29:27.084Z,61.10
2018-03-31T08:30:28.001Z,61.20
2018-03-31T08:31:28.916Z,61.20
2018-03-31T08:32:29.988Z,61.10
2018-03-31T08:33:31.345Z,61.10
2018-03-31T08:34:33.013Z,61.80
2018-03-31T08:35:33.897Z,61.80
2018-03-31T08:36:34.815Z,62.00
2018-03-31T08:37:35.713Z,62.50
2018-03-31T08:38:36.603Z,62.80
2018-03-31T08:39:37.524Z,62.60
2018-03-31T08:40:38.425Z,62.00
2018-03-31T08:41:39.318Z,61.70
2018-03-31T08:42:40.608Z,61.70
2018-03-31T08:43:41.946Z,61.70
2018-03-31T08:44:42.863Z,61.70
2018-03-31T08:45:43.752Z,61.60
2018-03-31T08:46:44.663Z,61.50
2018-03-31T08:47:45.572Z,61.60
2018-03-31T08:48:46.457Z,61.40
2018-03-31T08:49:47.343Z,61.10
2018-03-31T08:50:48.271Z,61.00
2018-03-31T08:51:49.189Z,60.50
2018-03-31T08:52:50.812Z,60.70
2018-03-31T08:53:51.791Z,60.80
2018-03-31T08:54:54.090Z,60.70
2018-03-31T08:55:55.911Z,60.80
2018-03-31T08:56:56.812Z,60.70
2018-03-31T08:57:58.383Z,60.50
2018-03-31T08:59:00.356Z,60.80
2018-03-31T09:00:01.332Z,60.80
2018-03-31T09:01:02.222Z,60.80
2018-03-31T09:02:03.119Z,60.80
2018-03-31T09:03:04.762Z,60.90
2018-03-31T09:04:05.714Z,60.80
2018-03-31T09:05:06.615Z,61.10
2018-03-31T09:06:08.237Z,60.90
2018-03-31T09:07:09.154Z,60.90
2018-03-31T09:08:10.044Z,61.10
2018-03-31T09:09:11.018Z,60.80
2018-03-31T09:10:13.290Z,60.50
2018-03-31T09:11:20.248Z,60.70
2018-03-31T09:12:21.140Z,60.80
2018-03-31T09:13:22.043Z,60.10
2018-03-31T09:14:22.936Z,59.70
2018-03-31T09:15:23.831Z,59.90
2018-03-31T09:16:24.734Z,59.90
2018-03-31T09:17:25.629Z,57.90
2018-03-31T09:18:26.527Z,59.40
2018-03-31T09:19:27.423Z,58.80
2018-03-31T09:20:28.319Z,58.80
2018-03-31T09:21:29.956Z,58.40
2018-03-31T09:22:30.860Z,58.40
2018-03-31T09:23:31.743Z,58.00
2018-03-31T09:24:32.627Z,58.70
2018-03-31T09:25:33.507Z,58.00
2018-03-31T09:26:34.397Z,58.20
2018-03-31T09:27:35.291Z,58.10
2018-03-31T09:28:36.180Z,58.80
2018-03-31T09:29:37.072Z,59.00
2018-03-31T09:30:37.970Z,58.80
2018-03-31T09:31:38.859Z,59.00
2018-03-31T09:32:39.772Z,59.40
2018-03-31T09:33:41.415Z,59.60
2018-03-31T09:34:42.296Z,59.60
2018-03-31T09:35:43.176Z,60.20
2018-03-31T09:36:44.076Z,59.50
2018-03-31T09:37:45.000Z,59.40
2018-03-31T09:38:45.888Z,59.70
2018-03-31T09:39:46.797Z,59.80
2018-03-31T09:40:47.695Z,59.50
2018-03-31T09:41:48.576Z,59.00
2018-03-31T09:42:49.483Z,57.10
2018-03-31T09:43:50.400Z,56.80
2018-03-31T09:44:52.034Z,57.20
2018-03-31T09:45:52.922Z,57.20
2018-03-31T09:46:53.817Z,58.00
2018-03-31T09:47:54.712Z,57.80
2018-03-31T09:48:55.609Z,57.50
2018-03-31T09:49:56.492Z,57.00
2018-03-31T09:50:58.141Z,56.60
2018-03-31T09:51:59.782Z,56.50
2018-03-31T09:53:01.432Z,57.40
2018-03-31T09:54:02.320Z,56.70
2018-03-31T09:55:03.213Z,56.20
2018-03-31T09:56:04.107Z,55.70
2018-03-31T09:57:05.757Z,56.10
2018-03-31T09:58:06.645Z,56.30
2018-03-31T09:59:07.584Z,56.60
2018-03-31T10:00:08.490Z,57.00
2018-03-31T10:01:09.400Z,57.20
2018-03-31T10:02:10.299Z,56.70
2018-03-31T10:03:11.927Z,56.40
2018-03-31T10:04:12.817Z,56.20
2018-03-31T10:05:13.713Z,56.10
2018-03-31T10:06:14.601Z,57.20
2018-03-31T10:07:15.488Z,55.70
2018-03-31T10:08:16.392Z,55.80
2018-03-31T10:09:17.313Z,56.20
2018-03-31T10:10:18.946Z,56.70
2018-03-31T10:11:20.593Z,56.70
2018-03-31T10:12:22.215Z,56.70
2018-03-31T10:13:23.119Z,56.70
2018-03-31T10:14:24.008Z,56.70
2018-03-31T10:15:25.651Z,57.20
2018-03-31T10:16:27.369Z,56.80
2018-03-31T10:17:28.272Z,56.80
2018-03-31T10:18:29.167Z,55.80
2018-03-31T10:19:30.051Z,56.30
2018-03-31T10:20:30.935Z,56.70
2018-03-31T10:21:31.824Z,55.80
2018-03-31T10:22:33.506Z,54.50
2018-03-31T10:23:34.367Z,54.40
2018-03-31T10:24:35.263Z,53.50
2018-03-31T10:25:36.153Z,54.00
2018-03-31T10:26:37.052Z,53.80
2018-03-31T10:27:37.980Z,54.30
2018-03-31T10:28:38.884Z,54.10
2018-03-31T10:29:39.788Z,54.50
2018-03-31T10:30:40.697Z,54.80
2018-03-31T10:31:41.592Z,53.60
2018-03-31T10:32:42.472Z,52.80
2018-03-31T10:33:43.368Z,52.10
2018-03-31T10:34:44.272Z,51.40
2018-03-31T10:35:45.163Z,51.80
2018-03-31T10:36:46.049Z,51.50
2018-03-31T10:37:46.951Z,50.80
2018-03-31T10:38:47.873Z,51.50
2018-03-31T10:39:48.757Z,51.80
2018-03-31T10:40:49.668Z,51.60
2018-03-31T10:41:51.320Z,51.70
2018-03-31T10:42:52.984Z,51.20
2018-03-31T10:43:53.883Z,51.10
2018-03-31T10:44:54.763Z,51.20
2018-03-31T10:45:55.644Z,51.80
2018-03-31T10:46:57.289Z,51.20
2018-03-31T10:47:58.924Z,52.40
2018-03-31T10:48:59.837Z,52.40
2018-03-31T10:50:00.728Z,51.10
2018-03-31T10:51:01.716Z,51.10
2018-03-31T10:52:03.357Z,51.40
2018-03-31T10:53:04.248Z,51.40
2018-03-31T10:54:05.141Z,51.20
2018-03-31T10:55:06.057Z,51.20
2018-03-31T10:56:07.696Z,50.10
2018-03-31T10:57:09.360Z,50.50
2018-03-31T10:58:10.258Z,49.80
2018-03-31T10:59:11.188Z,49.80
2018-03-31T11:00:12.129Z,50.00
2018-03-31T11:01:13.756Z,51.00
2018-03-31T11:02:14.636Z,50.30
2018-03-31T11:03:15.528Z,49.80
2018-03-31T11:04:17.169Z,49.70
2018-03-31T11:05:18.056Z,49.00
2018-03-31T11:06:18.974Z,48.10
2018-03-31T11:07:19.860Z,47.50
2018-03-31T11:08:21.491Z,47.60
2018-03-31T11:09:22.384Z,47.60
2018-03-31T11:10:23.271Z,48.10
2018-03-31T11:11:24.179Z,47.80
2018-03-31T11:12:25.074Z,48.20
2018-03-31T11:13:25.973Z,48.40
2018-03-31T11:14:26.892Z,48.40
2018-03-31T11:15:27.784Z,48.50
2018-03-31T11:16:28.684Z,48.00
2018-03-31T11:17:29.578Z,48.60
2018-03-31T11:18:30.479Z,48.50
2018-03-31T11:19:31.379Z,48.20
2018-03-31T11:20:32.286Z,47.70
2018-03-31T11:21:34.136Z,48.50
2018-03-31T11:22:35.089Z,48.10
2018-03-31T11:23:35.976Z,47.60
2018-03-31T11:24:36.879Z,48.10
2018-03-31T11:25:38.503Z,48.90
2018-03-31T11:26:39.393Z,48.90
2018-03-31T11:27:40.277Z,48.50
2018-03-31T11:28:41.177Z,48.20
2018-03-31T11:29:42.078Z,47.80
2018-03-31T11:30:43.016Z,47.90
2018-03-31T11:31:43.918Z,48.00
2018-03-31T11:32:44.811Z,47.90
2018-03-31T11:33:46.435Z,47.90
2018-03-31T11:34:47.376Z,47.90
2018-03-31T11:35:48.292Z,47.70
2018-03-31T11:36:49.220Z,48.00
2018-03-31T11:37:50.147Z,47.30
2018-03-31T11:38:51.043Z,47.70
2018-03-31T11:39:51.941Z,47.90
2018-03-31T11:40:52.856Z,47.90
2018-03-31T11:41:54.488Z,47.00
2018-03-31T11:42:55.421Z,46.90
2018-03-31T11:43:57.072Z,47.20
2018-03-31T11:44:58.003Z,46.50
2018-03-31T11:45:59.671Z,45.10
2018-03-31T11:47:00.552Z,45.10
2018-03-31T11:48:01.456Z,45.20
2018-03-31T11:49:02.343Z,44.90
2018-03-31T11:50:03.990Z,45.20
2018-03-31T11:51:05.612Z,45.20
2018-03-31T11:52:06.505Z,45.20
2018-03-31T11:53:07.395Z,45.60
2018-03-31T11:54:09.055Z,45.20
2018-03-31T11:55:09.953Z,45.20
2018-03-31T11:56:11.601Z,45.10
2018-03-31T11:57:13.230Z,42.40
2018-03-31T11:58:14.119Z,42.30
2018-03-31T11:59:15.005Z,42.60
2018-03-31T12:00:16.654Z,43.30
2018-03-31T12:01:18.323Z,43.40
2018-03-31T12:02:19.222Z,43.40
2018-03-31T12:03:20.868Z,44.00
2018-03-31T12:04:22.493Z,44.20
2018-03-31T12:05:23.388Z,44.20
2018-03-31T12:06:24.278Z,44.90
2018-03-31T12:07:25.908Z,44.70
2018-03-31T12:08:27.537Z,45.00
2018-03-31T12:09:28.428Z,44.90
2018-03-31T12:10:29.329Z,45.10
2018-03-31T12:11:30.215Z,45.40
2018-03-31T12:12:31.111Z,45.70
2018-03-31T12:13:31.993Z,45.90
2018-03-31T12:14:33.617Z,45.10
2018-03-31T12:15:34.524Z,45.10
2018-03-31T12:16:35.423Z,45.10
2018-03-31T12:17:36.318Z,44.10
2018-03-31T12:18:37.230Z,44.10
2018-03-31T12:19:38.120Z,44.50
2018-03-31T12:20:39.016Z,44.10
2018-03-31T12:21:39.896Z,44.90
2018-03-31T12:22:40.788Z,45.50
2018-03-31T12:23:41.730Z,45.40
2018-03-31T12:24:42.616Z,45.50
2018-03-31T12:25:44.270Z,44.50
2018-03-31T12:26:45.887Z,43.40
2018-03-31T12:27:46.775Z,43.40
2018-03-31T12:28:47.667Z,43.10
2018-03-31T12:29:49.297Z,43.00
2018-03-31T12:30:50.188Z,42.80
2018-03-31T12:31:51.100Z,43.10
2018-03-31T12:32:51.989Z,42.00
2018-03-31T12:33:52.884Z,42.80
2018-03-31T12:34:53.759Z,42.00
2018-03-31T12:35:55.404Z,42.20
2018-03-31T12:36:57.029Z,42.80
2018-03-31T12:37:57.910Z,42.80
2018-03-31T12:38:58.827Z,43.80
2018-03-31T12:39:59.707Z,44.10
2018-03-31T12:41:00.628Z,43.40
2018-03-31T12:42:01.518Z,43.20
2018-03-31T12:43:02.434Z,43.80
2018-03-31T12:44:03.316Z,44.20
2018-03-31T12:45:04.219Z,43.90
2018-03-31T12:46:05.112Z,43.50
2018-03-31T12:47:06.002Z,43.20
2018-03-31T12:48:06.889Z,43.40
2018-03-31T12:49:07.797Z,43.50
2018-03-31T12:50:08.696Z,43.60
2018-03-31T12:51:10.341Z,43.70
2018-03-31T12:52:11.230Z,43.60
2018-03-31T12:53:12.108Z,43.80
2018-03-31T12:54:13.746Z,43.40
2018-03-31T12:55:14.655Z,43.20
2018-03-31T12:56:15.546Z,42.30
2018-03-31T12:57:22.221Z,41.80
2018-03-31T12:58:25.984Z,41.80
2018-03-31T12:59:26.976Z,42.00
2018-03-31T13:00:27.874Z,42.60
2018-03-31T13:01:28.789Z,42.80
2018-03-31T13:02:29.693Z,42.40
2018-03-31T13:03:31.316Z,42.50
2018-03-31T13:04:32.255Z,42.40
2018-03-31T13:05:33.121Z,42.40
2018-03-31T13:06:34.045Z,42.30
2018-03-31T13:07:34.952Z,42.10